Time;durP1;ratioP1;P1;durP2;ratioP2;P2;SDS_P1;SDS_P2;PMS_P1;PMS_P2;Temp;Humidity;BMP_temperature;BMP_pressure;BME280_temperature;BME280_humidity;BME280_pressure;Samples;Min_cycle;Max_cycle;Signal;HPM_P1;HPM_P2
2023/10/27 00:00:57;;;;;;;;;;;;;;;17.42;nan;99592.47;4973734;28;20138;-89
2023/10/27 00:03:26;;;;;;;;;;;;;;;17.44;nan;99589.44;4976790;28;19925;-90
2023/10/27 00:05:54;;;;;;;;;;;;;;;17.43;nan;99588.63;4973431;28;20504;-89
2023/10/27 00:08:20;;;;;;;;;;;;;;;17.44;nan;99586.72;4972177;28;19925;-89
2023/10/27 00:10:49;;;;;;;;;;;;;;;17.43;nan;99587.84;4972880;28;19929;-89
2023/10/27 00:13:16;;;;;;;;;;;;;;;17.39;nan;99582.25;4974060;28;19945;-90
2023/10/27 00:15:51;;;;;;;;;;;;;;;17.35;nan;99575.09;4971336;28;20005;-89
2023/10/27 00:18:20;;;;;;;;;;;;;;;17.34;nan;99576.22;4969873;28;20321;-89
2023/10/27 00:20:48;;;;;;;;;;;;;;;17.35;nan;99575.09;4971713;28;19976;-89
2023/10/27 00:23:17;;;;;;;;;;;;;;;17.36;nan;99577.47;4973087;28;19926;-89
2023/10/27 00:25:43;;;;;;;;;;;;;;;17.36;nan;99573.97;4971977;28;19926;-89
2023/10/27 00:28:10;;;;;;;;;;;;;;;17.34;nan;99574.31;4969452;28;19929;-90
2023/10/27 00:30:45;;;;;;;;;;;;;;;17.33;nan;99569.22;4967853;28;19921;-88
2023/10/27 00:33:13;;;;;;;;;;;;;;;17.33;nan;99570.00;4974370;28;19926;-89
2023/10/27 00:35:43;;;;;;;;;;;;;;;17.34;nan;99578.91;4971905;28;19988;-88
2023/10/27 00:38:11;;;;;;;;;;;;;;;17.36;nan;99568.56;4966338;28;19917;-89
2023/10/27 00:40:44;;;;;;;;;;;;;;;17.37;nan;99567.44;4970754;28;20039;-88
2023/10/27 00:43:16;;;;;;;;;;;;;;;17.38;nan;99559.00;4971267;28;20413;-88
2023/10/27 00:45:42;;;;;;;;;;;;;;;17.38;nan;99552.78;4970690;28;19973;-90
2023/10/27 00:48:08;;;;;;;;;;;;;;;17.38;nan;99547.38;4973638;28;20365;-88
2023/10/27 00:50:33;;;;;;;;;;;;;;;17.40;nan;99547.84;4973646;28;20101;-90
2023/10/27 00:53:01;;;;;;;;;;;;;;;17.41;nan;99541.31;4969166;28;19972;-89
2023/10/27 00:55:27;;;;;;;;;;;;;;;17.40;nan;99535.09;4970106;28;19969;-88
2023/10/27 00:57:54;;;;;;;;;;;;;;;17.41;nan;99531.28;4989847;28;20286;-89
2023/10/27 01:00:20;;;;;;;;;;;;;;;17.42;nan;99534.81;4972691;28;19977;-89
2023/10/27 01:02:47;;;;;;;;;;;;;;;17.43;nan;99533.69;4968936;28;19921;-90
2023/10/27 01:05:17;;;;;;;;;;;;;;;17.42;nan;99534.81;4967161;28;20016;-88
2023/10/27 01:07:46;;;;;;;;;;;;;;;17.43;nan;99530.97;4973417;28;19922;-88
2023/10/27 01:10:11;;;;;;;;;;;;;;;17.42;nan;99526.69;4969560;28;19932;-89
2023/10/27 01:12:43;;;;;;;;;;;;;;;17.41;nan;99527.75;4968407;28;20045;-89
2023/10/27 01:15:11;;;;;;;;;;;;;;;17.38;nan;99517.59;4967841;28;19960;-89
2023/10/27 01:17:39;;;;;;;;;;;;;;;17.36;nan;99522.53;4969960;28;20359;-90
2023/10/27 01:20:07;;;;;;;;;;;;;;;17.34;nan;99524.78;4966842;28;19924;-89
2023/10/27 01:22:34;;;;;;;;;;;;;;;17.34;nan;99524.78;4970184;28;20017;-89
2023/10/27 01:25:04;;;;;;;;;;;;;;;17.33;nan;99517.78;4970175;28;19930;-88
2023/10/27 01:27:36;;;;;;;;;;;;;;;17.32;nan;99516.97;4971829;28;19936;-89
2023/10/27 01:30:16;;;;;;;;;;;;;;;17.31;nan;99509.97;4972874;28;19918;-90
2023/10/27 01:32:50;;;;;;;;;;;;;;;17.32;nan;99508.84;4974389;28;20020;-89
2023/10/27 01:35:16;;;;;;;;;;;;;;;17.32;nan;99505.34;4969614;28;20068;-90
2023/10/27 01:37:43;;;;;;;;;;;;;;;17.32;nan;99505.34;4969750;28;19926;-90
2023/10/27 01:40:13;;;;;;;;;;;;;;;17.31;nan;99498.34;4972946;28;19917;-89
2023/10/27 01:42:40;;;;;;;;;;;;;;;17.29;nan;99500.59;4968145;28;19921;-89
2023/10/27 01:45:06;;;;;;;;;;;;;;;17.27;nan;99494.72;4973342;28;19973;-89
2023/10/27 01:47:33;;;;;;;;;;;;;;;17.27;nan;99494.72;4971834;28;19922;-88
2023/10/27 01:50:01;;;;;;;;;;;;;;;17.29;nan;99497.88;4965539;28;20279;-90
2023/10/27 01:52:36;;;;;;;;;;;;;;;17.28;nan;99494.38;4969846;28;20058;-88
2023/10/27 01:55:02;;;;;;;;;;;;;;;17.28;nan;99486.25;4958971;28;19922;-90
2023/10/27 01:57:34;;;;;;;;;;;;;;;17.30;nan;99489.44;4970346;28;19926;-90
2023/10/27 02:00:03;;;;;;;;;;;;;;;17.31;nan;99490.22;4966740;28;20386;-89
2023/10/27 02:02:29;;;;;;;;;;;;;;;17.32;nan;99481.00;4967933;28;19929;-90
2023/10/27 02:04:55;;;;;;;;;;;;;;;17.32;nan;99481.78;4970997;28;20020;-89
2023/10/27 02:07:24;;;;;;;;;;;;;;;17.33;nan;99482.56;4973541;28;19957;-89
2023/10/27 02:09:52;;;;;;;;;;;;;;;17.32;nan;99483.69;4964990;28;19929;-89
2023/10/27 02:12:21;;;;;;;;;;;;;;;17.33;nan;99480.66;4968648;28;19922;-89
2023/10/27 02:14:52;;;;;;;;;;;;;;;17.32;nan;99481.78;4971292;28;19925;-89
2023/10/27 02:17:20;;;;;;;;;;;;;;;17.32;nan;99481.78;4969589;28;19934;-89
2023/10/27 02:19:47;;;;;;;;;;;;;;;17.31;nan;99480.19;4971724;28;19926;-89
2023/10/27 02:22:14;;;;;;;;;;;;;;;17.32;nan;99489.13;4971670;28;19926;-89
2023/10/27 02:24:42;;;;;;;;;;;;;;;17.32;nan;99486.41;4971330;28;20562;-89
2023/10/27 02:27:07;;;;;;;;;;;;;;;17.31;nan;99476.69;4974865;28;19928;-90
2023/10/27 02:29:33;;;;;;;;;;;;;;;17.28;nan;99474.63;4970873;28;19958;-89
2023/10/27 02:31:59;;;;;;;;;;;;;;;17.26;nan;99474.16;4974805;28;20004;-89
2023/10/27 02:34:26;;;;;;;;;;;;;;;17.22;nan;99474.78;4971253;28;19980;-88
2023/10/27 02:36:55;;;;;;;;;;;;;;;17.23;nan;99475.59;4971960;28;20017;-89
2023/10/27 02:39:22;;;;;;;;;;;;;;;17.20;nan;99471.63;4973965;28;20783;-88
2023/10/27 02:41:51;;;;;;;;;;;;;;;17.21;nan;99469.69;4973007;28;19922;-89
2023/10/27 02:44:19;;;;;;;;;;;;;;;17.22;nan;99468.59;4972333;28;19922;-89
2023/10/27 02:46:48;;;;;;;;;;;;;;;17.23;nan;99472.88;4969970;28;20050;-89
2023/10/27 02:49:18;;;;;;;;;;;;;;;17.22;nan;99472.09;4969790;28;19930;-89
2023/10/27 02:51:52;;;;;;;;;;;;;;;17.24;nan;99476.41;4964245;28;19921;-90
2023/10/27 02:54:21;;;;;;;;;;;;;;;17.24;nan;99471.78;4971237;28;19922;-89
2023/10/27 02:56:54;;;;;;;;;;;;;;;17.24;nan;99468.28;4972253;28;19918;-89
2023/10/27 02:59:21;;;;;;;;;;;;;;;17.23;nan;99464.75;4967687;28;19925;-89
2023/10/27 03:01:47;;;;;;;;;;;;;;;17.24;nan;99465.59;4974742;28;19929;-88
2023/10/27 03:04:13;;;;;;;;;;;;;;;17.25;nan;99467.16;4974248;28;19925;-89
2023/10/27 03:06:43;;;;;;;;;;;;;;;17.25;nan;99467.16;4971433;28;19964;-90
2023/10/27 03:09:11;;;;;;;;;;;;;;;17.25;nan;99475.28;4970959;28;20395;-89
2023/10/27 03:11:38;;;;;;;;;;;;;;;17.24;nan;99466.38;4967869;28;19926;-90
2023/10/27 03:14:07;;;;;;;;;;;;;;;17.22;nan;99463.16;4972118;28;19925;-89
2023/10/27 03:16:35;;;;;;;;;;;;;;;17.21;nan;99464.28;4974248;28;20442;-88
2023/10/27 03:19:02;;;;;;;;;;;;;;;17.20;nan;99460.78;4974731;28;19921;-89
2023/10/27 03:21:30;;;;;;;;;;;;;;;17.19;nan;99469.22;4972028;28;19933;-89
2023/10/27 03:23:57;;;;;;;;;;;;;;;17.20;nan;99468.13;4969467;28;19973;-89
2023/10/27 03:26:25;;;;;;;;;;;;;;;17.21;nan;99477.81;4973836;28;19936;-89
2023/10/27 03:28:51;;;;;;;;;;;;;;;17.20;nan;99485.16;4973860;28;19976;-89
2023/10/27 03:31:17;;;;;;;;;;;;;;;17.21;nan;99481.31;4970666;28;19921;-89
2023/10/27 03:33:44;;;;;;;;;;;;;;;17.20;nan;99482.44;4978487;28;19926;-89
2023/10/27 03:36:11;;;;;;;;;;;;;;;17.18;nan;99478.47;4975511;28;19980;-90
2023/10/27 03:38:38;;;;;;;;;;;;;;;17.17;nan;99488.50;4959863;28;19934;-89
2023/10/27 03:41:06;;;;;;;;;;;;;;;17.17;nan;99485.00;4970696;28;19941;-89
2023/10/27 03:43:40;;;;;;;;;;;;;;;17.17;nan;99491.22;4973920;28;20095;-90
2023/10/27 03:46:07;;;;;;;;;;;;;;;17.18;nan;99494.72;4967233;28;19929;-89
2023/10/27 03:48:37;;;;;;;;;;;;;;;17.17;nan;99493.13;4974259;28;19929;-88
2023/10/27 03:51:12;;;;;;;;;;;;;;;17.15;nan;99490.75;4970665;28;20000;-89
2023/10/27 03:53:47;;;;;;;;;;;;;;;17.15;nan;99498.06;4973610;28;19970;-89
2023/10/27 03:56:13;;;;;;;;;;;;;;;17.13;nan;99492.97;4972969;28;20024;-89
2023/10/27 03:58:38;;;;;;;;;;;;;;;17.16;nan;99496.94;4973668;28;20039;-89
2023/10/27 04:01:09;;;;;;;;;;;;;;;17.17;nan;99499.34;4973077;28;19922;-90
2023/10/27 04:03:36;;;;;;;;;;;;;;;17.18;nan;99502.84;4961673;28;20033;-88
2023/10/27 04:06:03;;;;;;;;;;;;;;;17.17;nan;99498.53;4975435;28;19988;-90
2023/10/27 04:08:31;;;;;;;;;;;;;;;17.16;nan;99499.66;4975463;28;19960;-89
2023/10/27 04:10:58;;;;;;;;;;;;;;;17.15;nan;99503.47;4968052;28;19928;-90
2023/10/27 04:13:27;;;;;;;;;;;;;;;17.14;nan;99499.19;4976818;28;19931;-90
2023/10/27 04:15:56;;;;;;;;;;;;;;;17.12;nan;99496.81;4973136;28;19921;-88
2023/10/27 04:18:21;;;;;;;;;;;;;;;17.12;nan;99502.22;4977606;28;19928;-88
2023/10/27 04:20:48;;;;;;;;;;;;;;;17.13;nan;99503.81;4970968;28;19930;-89
2023/10/27 04:23:14;;;;;;;;;;;;;;;17.13;nan;99503.81;4972507;28;19953;-90
2023/10/27 04:25:41;;;;;;;;;;;;;;;17.11;nan;99511.44;4969509;28;19949;-89
2023/10/27 04:28:08;;;;;;;;;;;;;;;17.09;nan;99505.56;4971888;28;19960;-90
2023/10/27 04:30:37;;;;;;;;;;;;;;;17.07;nan;99512.41;4970297;28;19929;-89
2023/10/27 04:33:06;;;;;;;;;;;;;;;17.07;nan;99504.31;4974777;28;19936;-88
2023/10/27 04:35:35;;;;;;;;;;;;;;;17.06;nan;99505.41;4968101;28;19918;-89
2023/10/27 04:38:01;;;;;;;;;;;;;;;17.05;nan;99510.00;4967435;28;19925;-89
2023/10/27 04:40:29;;;;;;;;;;;;;;;17.03;nan;99512.25;4966696;28;20028;-89
2023/10/27 04:42:58;;;;;;;;;;;;;;;17.02;nan;99507.94;4973458;28;20552;-90
2023/10/27 04:45:25;;;;;;;;;;;;;;;17.02;nan;99507.16;4974528;28;19934;-90
2023/10/27 04:47:51;;;;;;;;;;;;;;;16.99;nan;99502.38;4971205;28;19948;-89
2023/10/27 04:50:18;;;;;;;;;;;;;;;16.96;nan;99503.84;4967564;28;19922;-89
2023/10/27 04:52:45;;;;;;;;;;;;;;;16.96;nan;99498.41;4972122;28;20449;-89
2023/10/27 04:55:15;;;;;;;;;;;;;;;16.96;nan;99497.63;4972132;28;19954;-90
2023/10/27 04:57:49;;;;;;;;;;;;;;;16.97;nan;99500.00;4970280;28;19918;-90
2023/10/27 05:00:16;;;;;;;;;;;;;;;16.99;nan;99499.69;4970366;28;19933;-89
2023/10/27 05:02:43;;;;;;;;;;;;;;;16.99;nan;99497.78;4968005;28;19976;-90
2023/10/27 05:05:11;;;;;;;;;;;;;;;17.01;nan;99492.84;4965978;28;19941;-89
2023/10/27 05:07:38;;;;;;;;;;;;;;;17.00;nan;99499.34;4967838;28;19926;-89
2023/10/27 05:10:09;;;;;;;;;;;;;;;16.98;nan;99490.78;4966338;28;19918;-90
2023/10/27 05:12:36;;;;;;;;;;;;;;;16.97;nan;99489.19;4966357;28;19918;-89
2023/10/27 05:15:06;;;;;;;;;;;;;;;17.01;nan;99487.41;4971366;28;19918;-89
2023/10/27 05:17:36;;;;;;;;;;;;;;;17.03;nan;99487.88;4968148;28;19926;-88
2023/10/27 05:20:13;;;;;;;;;;;;;;;17.03;nan;99481.69;4973911;28;20104;-89
2023/10/27 05:23:04;;;;;;;;;;;;;;;17.02;nan;99480.09;4972918;28;19918;-88
2023/10/27 05:25:39;;;;;;;;;;;;;;;17.01;nan;99476.59;4969661;28;19933;-89
2023/10/27 05:28:08;;;;;;;;;;;;;;;17.01;nan;99484.72;4973933;28;19925;-89
2023/10/27 05:30:37;;;;;;;;;;;;;;;17.01;nan;99479.31;4968363;28;19949;-89
2023/10/27 05:33:07;;;;;;;;;;;;;;;17.01;nan;99486.63;4970591;28;20277;-89
2023/10/27 05:35:33;;;;;;;;;;;;;;;17.02;nan;99480.88;4970396;28;19960;-87
2023/10/27 05:38:01;;;;;;;;;;;;;;;17.02;nan;99489.00;4973355;28;19957;-89
2023/10/27 05:40:31;;;;;;;;;;;;;;;17.02;nan;99480.88;4967700;28;20906;-89
2023/10/27 05:43:00;;;;;;;;;;;;;;;17.04;nan;99480.56;4974497;28;19932;-89
2023/10/27 05:45:26;;;;;;;;;;;;;;;17.03;nan;99485.19;4970921;28;19926;-88
2023/10/27 05:47:54;;;;;;;;;;;;;;;17.03;nan;99485.19;4971943;28;20524;-89
2023/10/27 05:50:29;;;;;;;;;;;;;;;17.02;nan;99474.69;4976085;28;19929;-90
2023/10/27 05:52:56;;;;;;;;;;;;;;;17.01;nan;99486.63;4973307;28;20686;-90
2023/10/27 05:55:25;;;;;;;;;;;;;;;17.00;nan;99488.53;4976130;28;20301;-90
2023/10/27 05:58:00;;;;;;;;;;;;;;;16.99;nan;99486.16;4979117;28;19925;-90
2023/10/27 06:00:29;;;;;;;;;;;;;;;16.98;nan;99479.16;4975292;28;20309;-90
2023/10/27 06:02:57;;;;;;;;;;;;;;;16.96;nan;99482.19;4974739;28;19918;-90
2023/10/27 06:05:23;;;;;;;;;;;;;;;16.95;nan;99486.00;4975602;28;19933;-89
2023/10/27 06:07:48;;;;;;;;;;;;;;;16.95;nan;99479.81;4972063;28;19926;-90
2023/10/27 06:10:14;;;;;;;;;;;;;;;16.94;nan;99478.22;4976639;28;20005;-90
2023/10/27 06:12:40;;;;;;;;;;;;;;;16.92;nan;99482.03;4971984;28;20802;-90
2023/10/27 06:15:07;;;;;;;;;;;;;;;16.90;nan;99480.78;4974694;28;19921;-86
2023/10/27 06:17:33;;;;;;;;;;;;;;;16.89;nan;99488.09;4975648;28;19926;-91
2023/10/27 06:20:02;;;;;;;;;;;;;;;16.89;nan;99492.72;4975761;28;19941;-85
2023/10/27 06:22:28;;;;;;;;;;;;;;;16.90;nan;99486.19;4980211;28;20016;-91
2023/10/27 06:24:56;;;;;;;;;;;;;;;16.91;nan;99483.16;4979149;28;19939;-87
2023/10/27 06:27:23;;;;;;;;;;;;;;;16.93;nan;99482.84;4980544;28;19925;-93
2023/10/27 06:29:48;;;;;;;;;;;;;;;16.94;nan;99483.63;4977162;28;19926;-88
2023/10/27 06:32:22;;;;;;;;;;;;;;;16.95;nan;99485.22;4978706;28;19922;-90
2023/10/27 06:34:48;;;;;;;;;;;;;;;16.96;nan;99495.72;4974876;28;20372;-87
2023/10/27 06:37:17;;;;;;;;;;;;;;;16.94;nan;99495.25;4982138;28;19918;-91
2023/10/27 06:39:42;;;;;;;;;;;;;;;16.94;nan;99499.84;4979822;28;20710;-90
2023/10/27 06:42:08;;;;;;;;;;;;;;;16.93;nan;99499.06;4975733;28;19928;-88
2023/10/27 06:44:35;;;;;;;;;;;;;;;16.92;nan;99498.28;4978106;28;19926;-88
2023/10/27 06:47:02;;;;;;;;;;;;;;;16.93;nan;99488.25;4970061;28;19918;-87
2023/10/27 06:49:31;;;;;;;;;;;;;;;16.95;nan;99491.41;4975036;28;19932;-90
2023/10/27 06:52:04;;;;;;;;;;;;;;;16.98;nan;99495.38;4978837;28;20510;-93
2023/10/27 06:54:34;;;;;;;;;;;;;;;16.99;nan;99497.78;4974504;28;19922;-91
2023/10/27 06:57:01;;;;;;;;;;;;;;;16.97;nan;99494.59;4976833;28;19921;-88
2023/10/27 06:59:36;;;;;;;;;;;;;;;16.95;nan;99491.41;4976343;28;19928;-93
2023/10/27 07:02:05;;;;;;;;;;;;;;;16.94;nan;99494.44;4971060;28;19922;-88
2023/10/27 07:04:33;;;;;;;;;;;;;;;16.96;nan;99495.72;4971752;28;19930;-91
2023/10/27 07:07:04;;;;;;;;;;;;;;;16.97;nan;99497.31;4972856;28;19922;-90
2023/10/27 07:09:30;;;;;;;;;;;;;;;16.98;nan;99501.59;4975108;28;20067;-89
2023/10/27 07:12:03;;;;;;;;;;;;;;;17.02;nan;99499.03;4975190;28;20009;-88
2023/10/27 07:14:30;;;;;;;;;;;;;;;17.04;nan;99510.34;4977607;28;20370;-88
2023/10/27 07:17:04;;;;;;;;;;;;;;;17.04;nan;99511.13;4970290;28;20513;-94
2023/10/27 07:19:33;;;;;;;;;;;;;;;17.06;nan;99503.50;4977549;28;19957;-88
2023/10/27 07:22:11;;;;;;;;;;;;;;;17.08;nan;99503.19;4971350;28;19925;-93
2023/10/27 07:24:46;;;;;;;;;;;;;;;17.09;nan;99510.97;4970834;28;20522;-89
2023/10/27 07:27:13;;;;;;;;;;;;;;;17.12;nan;99518.44;4974436;28;19918;-88
2023/10/27 07:29:49;;;;;;;;;;;;;;;17.14;nan;99524.34;4976433;28;20370;-91
2023/10/27 07:32:18;;;;;;;;;;;;;;;17.15;nan;99522.44;4974054;28;19918;-88
2023/10/27 07:34:44;;;;;;;;;;;;;;;17.16;nan;99513.97;4975025;28;20003;-91
2023/10/27 07:37:13;;;;;;;;;;;;;;;17.18;nan;99517.16;4973152;28;19917;-91
2023/10/27 07:39:41;;;;;;;;;;;;;;;17.20;nan;99517.63;4973446;28;19930;-90
2023/10/27 07:42:09;;;;;;;;;;;;;;;17.22;nan;99526.22;4981110;28;19961;-90
2023/10/27 07:44:38;;;;;;;;;;;;;;;17.24;nan;99527.84;4969679;28;19954;-89
2023/10/27 07:47:05;;;;;;;;;;;;;;;17.23;nan;99521.59;4970249;28;20721;-88
2023/10/27 07:49:35;;;;;;;;;;;;;;;17.22;nan;99523.50;4972228;28;19922;-89
2023/10/27 07:52:06;;;;;;;;;;;;;;;17.22;nan;99526.22;4979868;28;20032;-90
2023/10/27 07:54:32;;;;;;;;;;;;;;;17.22;nan;99522.72;4972762;28;19926;-88
2023/10/27 07:56:59;;;;;;;;;;;;;;;17.22;nan;99526.22;4977016;28;19926;-90
2023/10/27 07:59:27;;;;;;;;;;;;;;;17.22;nan;99533.53;4972088;28;19944;-91
2023/10/27 08:01:57;;;;;;;;;;;;;;;17.20;nan;99531.16;4970975;28;20321;-89
2023/10/27 08:04:37;;;;;;;;;;;;;;;17.19;nan;99518.75;4971683;28;20038;-90
2023/10/27 08:07:05;;;;;;;;;;;;;;;17.22;nan;99520.81;4971541;28;19926;-93
2023/10/27 08:09:31;;;;;;;;;;;;;;;17.24;nan;99525.94;4970867;28;20292;-86
2023/10/27 08:11:57;;;;;;;;;;;;;;;17.26;nan;99522.91;4974656;28;20141;-90
2023/10/27 08:14:36;;;;;;;;;;;;;;;17.30;nan;99513.00;4976491;28;20414;-88
2023/10/27 08:17:11;;;;;;;;;;;;;;;17.28;nan;99520.66;4970713;28;20257;-87
2023/10/27 08:19:39;;;;;;;;;;;;;;;17.27;nan;99529.91;4968606;28;20302;-87
2023/10/27 08:22:06;;;;;;;;;;;;;;;17.25;nan;99522.09;4971663;28;20049;-89
2023/10/27 08:24:32;;;;;;;;;;;;;;;17.27;nan;99519.06;4974630;28;20039;-88
2023/10/27 08:26:59;;;;;;;;;;;;;;;17.29;nan;99524.94;4976439;28;19922;-88
2023/10/27 08:29:50;;;;;;;;;;;;;;;17.29;nan;99522.25;4973205;28;20398;-90
2023/10/27 08:32:17;;;;;;;;;;;;;;;17.28;nan;99528.78;4977071;28;19918;-90
2023/10/27 08:35:06;;;;;;;;;;;;;;;17.31;nan;99528.13;4977477;28;19984;-88
2023/10/27 08:37:36;;;;;;;;;;;;;;;17.32;nan;99532.44;4977948;28;19932;-94
2023/10/27 08:40:03;;;;;;;;;;;;;;;17.31;nan;99539.75;4968722;28;19925;-86
2023/10/27 08:42:33;;;;;;;;;;;;;;;17.33;nan;99536.72;4970374;28;19968;-93
2023/10/27 08:45:02;;;;;;;;;;;;;;;17.34;nan;99538.31;4972096;28;19929;-89
2023/10/27 08:47:33;;;;;;;;;;;;;;;17.36;nan;99536.88;4973296;28;19926;-89
2023/10/27 08:50:17;;;;;;;;;;;;;;;17.39;nan;99532.72;4974095;28;19918;-85
2023/10/27 08:52:49;;;;;;;;;;;;;;;17.41;nan;99527.75;4969522;28;20750;-86
2023/10/27 08:55:17;;;;;;;;;;;;;;;17.42;nan;99532.09;4968791;28;19922;-87
2023/10/27 08:57:43;;;;;;;;;;;;;;;17.43;nan;99533.69;4971474;28;19929;-92
2023/10/27 09:00:09;;;;;;;;;;;;;;;17.45;nan;99536.84;4967659;28;19922;-91
2023/10/27 09:02:48;;;;;;;;;;;;;;;17.47;nan;99535.41;4971598;28;19930;-89
2023/10/27 09:05:14;;;;;;;;;;;;;;;17.49;nan;99532.38;4969334;28;20015;-91
2023/10/27 09:07:42;;;;;;;;;;;;;;;17.51;nan;99540.97;4971434;28;20515;-90
2023/10/27 09:10:13;;;;;;;;;;;;;;;17.51;nan;99540.97;4978776;28;20509;-92
2023/10/27 09:12:41;;;;;;;;;;;;;;;17.51;nan;99535.56;4973914;28;19930;-89
2023/10/27 09:15:13;;;;;;;;;;;;;;;17.54;nan;99540.31;4977519;28;19917;-92
2023/10/27 09:17:56;;;;;;;;;;;;;;;17.55;nan;99535.69;4971522;28;19914;-91
2023/10/27 09:20:23;;;;;;;;;;;;;;;17.53;nan;99527.91;4977146;28;20397;-88
2023/10/27 09:23:11;;;;;;;;;;;;;;;17.56;nan;99529.97;4972993;28;19918;-88
2023/10/27 09:25:41;;;;;;;;;;;;;;;17.57;nan;99528.03;4973728;28;19929;-95
2023/10/27 09:28:11;;;;;;;;;;;;;;;17.58;nan;99518.78;4977575;28;20240;-89
2023/10/27 09:30:40;;;;;;;;;;;;;;;17.62;nan;99522.47;4976416;28;20417;-89
2023/10/27 09:33:12;;;;;;;;;;;;;;;17.64;nan;99518.31;4977950;28;19925;-86
2023/10/27 09:35:40;;;;;;;;;;;;;;;17.67;nan;99516.88;4975651;28;19921;-91
2023/10/27 09:38:08;;;;;;;;;;;;;;;17.69;nan;99514.66;4972253;28;19917;-89
2023/10/27 09:40:39;;;;;;;;;;;;;;;17.71;nan;99513.22;4974777;28;19961;-89
2023/10/27 09:43:10;;;;;;;;;;;;;;;17.76;nan;99512.22;4977958;28;19922;-93
2023/10/27 09:45:37;;;;;;;;;;;;;;;17.80;nan;99510.47;4978079;28;19929;-90
2023/10/27 09:48:04;;;;;;;;;;;;;;;17.81;nan;99517.47;4973094;28;20414;-88
2023/10/27 09:50:32;;;;;;;;;;;;;;;17.83;nan;99511.72;4977189;28;20423;-89
2023/10/27 09:53:09;;;;;;;;;;;;;;;17.84;nan;99510.63;4973958;28;19929;-90
2023/10/27 09:55:38;;;;;;;;;;;;;;;17.85;nan;99510.28;4976311;28;19984;-89
2023/10/27 09:58:04;;;;;;;;;;;;;;;17.88;nan;99509.63;4976833;28;19932;-90
2023/10/27 10:00:31;;;;;;;;;;;;;;;17.90;nan;99503.88;4972120;28;19922;-87
2023/10/27 10:03:02;;;;;;;;;;;;;;;17.92;nan;99507.84;4973245;28;19922;-91
2023/10/27 10:05:51;;;;;;;;;;;;;;;17.91;nan;99505.47;4970820;28;19930;-89
2023/10/27 10:08:20;;;;;;;;;;;;;;;17.90;nan;99504.66;4973761;28;20382;-94
2023/10/27 10:10:45;;;;;;;;;;;;;;;17.91;nan;99505.47;4973609;28;19972;-87
2023/10/27 10:13:17;;;;;;;;;;;;;;;17.95;nan;99514.53;4972443;28;20008;-93
2023/10/27 10:15:50;;;;;;;;;;;;;;;17.95;nan;99506.41;4981152;28;19926;-89
2023/10/27 10:18:22;;;;;;;;;;;;;;;17.94;nan;99508.31;4984530;28;19918;-89
2023/10/27 10:21:00;;;;;;;;;;;;;;;17.95;nan;99509.09;4979067;28;19928;-92
2023/10/27 10:23:39;;;;;;;;;;;;;;;17.96;nan;99508.81;4982324;28;19957;-89
2023/10/27 10:26:43;;;;;;;;;;;;;;;17.96;nan;99500.69;4974357;28;20004;-91
2023/10/27 10:29:28;;;;;;;;;;;;;;;17.97;nan;99504.19;4979596;28;19922;-89
2023/10/27 10:32:13;;;;;;;;;;;;;;;17.96;nan;99503.38;4977646;28;20121;-91
2023/10/27 10:34:41;;;;;;;;;;;;;;;17.98;nan;99501.13;4976714;28;20245;-90
2023/10/27 10:37:23;;;;;;;;;;;;;;;18.01;nan;99500.47;4972389;28;20488;-90
2023/10/27 10:40:10;;;;;;;;;;;;;;;18.04;nan;99510.66;4974439;28;19929;-91
2023/10/27 10:42:57;;;;;;;;;;;;;;;18.03;nan;99502.84;4975725;28;19944;-91
2023/10/27 10:45:23;;;;;;;;;;;;;;;18.05;nan;99504.13;4967899;28;21001;-90
2023/10/27 10:47:56;;;;;;;;;;;;;;;18.07;nan;99501.06;4975469;28;19922;-90
2023/10/27 10:50:29;;;;;;;;;;;;;;;18.07;nan;99506.50;4976199;28;19945;-91
2023/10/27 10:53:15;;;;;;;;;;;;;;;18.07;nan;99503.78;4975291;28;19929;-90
2023/10/27 10:55:44;;;;;;;;;;;;;;;18.07;nan;99496.44;4974024;28;20464;-90
2023/10/27 10:58:11;;;;;;;;;;;;;;;18.07;nan;99496.44;4974594;28;19929;-90
2023/10/27 11:00:38;;;;;;;;;;;;;;;18.09;nan;99486.06;4979868;28;19922;-91
2023/10/27 11:03:11;;;;;;;;;;;;;;;18.08;nan;99489.91;4971181;28;19968;-90
2023/10/27 11:05:36;;;;;;;;;;;;;;;18.07;nan;99482.09;4966491;28;20398;-89
2023/10/27 11:08:04;;;;;;;;;;;;;;;18.08;nan;99483.69;4978931;28;19976;-90
2023/10/27 11:10:32;;;;;;;;;;;;;;;18.09;nan;99485.28;4975582;28;20013;-91
2023/10/27 11:13:05;;;;;;;;;;;;;;;18.08;nan;99483.69;4974248;28;19930;-91
2023/10/27 11:16:02;;;;;;;;;;;;;;;18.09;nan;99480.66;4971900;28;19989;-90
2023/10/27 11:18:31;;;;;;;;;;;;;;;18.10;nan;99471.41;4976634;28;19922;-91
2023/10/27 11:20:59;;;;;;;;;;;;;;;18.13;nan;99472.66;4969761;28;19917;-91
2023/10/27 11:23:31;;;;;;;;;;;;;;;18.17;nan;99470.88;4979070;28;20320;-90
2023/10/27 11:26:08;;;;;;;;;;;;;;;18.17;nan;99464.69;4970124;28;20390;-89
2023/10/27 11:28:42;;;;;;;;;;;;;;;18.17;nan;99465.47;4977064;28;20147;-91
2023/10/27 11:31:15;;;;;;;;;;;;;;;18.17;nan;99465.47;4977371;28;20004;-90
2023/10/27 11:34:02;;;;;;;;;;;;;;;18.16;nan;99457.66;4976926;28;19929;-90
2023/10/27 11:36:35;;;;;;;;;;;;;;;18.15;nan;99465.00;4976959;28;19987;-90
2023/10/27 11:39:29;;;;;;;;;;;;;;;18.13;nan;99472.66;4980036;28;19929;-91
2023/10/27 11:42:02;;;;;;;;;;;;;;;18.10;nan;99454.34;4975087;28;19926;-91
2023/10/27 11:44:30;;;;;;;;;;;;;;;18.12;nan;99457.50;4979010;28;20065;-90
2023/10/27 11:47:00;;;;;;;;;;;;;;;18.15;nan;99456.09;4972922;28;19926;-91
2023/10/27 11:49:30;;;;;;;;;;;;;;;18.16;nan;99458.47;4973536;28;20008;-90
2023/10/27 11:51:58;;;;;;;;;;;;;;;18.16;nan;99447.63;4973032;28;19946;-91
2023/10/27 11:54:26;;;;;;;;;;;;;;;18.15;nan;99456.88;4975952;28;19968;-89
2023/10/27 11:56:56;;;;;;;;;;;;;;;18.16;nan;99460.38;4972650;28;20016;-90
2023/10/27 11:59:25;;;;;;;;;;;;;;;18.20;nan;99461.31;4975151;28;20632;-91
2023/10/27 12:01:52;;;;;;;;;;;;;;;18.22;nan;99462.56;4974949;28;20419;-90
2023/10/27 12:04:22;;;;;;;;;;;;;;;18.25;nan;99463.81;4972750;28;20053;-89
2023/10/27 12:06:53;;;;;;;;;;;;;;;18.26;nan;99474.31;4974198;28;19921;-90
2023/10/27 12:09:19;;;;;;;;;;;;;;;18.29;nan;99478.28;4983090;28;19917;-90
2023/10/27 12:11:45;;;;;;;;;;;;;;;18.29;nan;99479.06;4980193;28;19925;-89
2023/10/27 12:14:12;;;;;;;;;;;;;;;18.26;nan;99477.03;4973658;28;19952;-90
2023/10/27 12:16:43;;;;;;;;;;;;;;;18.26;nan;99484.38;4973999;28;20409;-90
2023/10/27 12:19:13;;;;;;;;;;;;;;;18.24;nan;99492.84;4975083;28;19921;-90
2023/10/27 12:21:43;;;;;;;;;;;;;;;18.22;nan;99495.09;4973389;28;19933;-90
2023/10/27 12:24:09;;;;;;;;;;;;;;;18.24;nan;99497.47;4968278;28;19992;-89
2023/10/27 12:26:34;;;;;;;;;;;;;;;18.24;nan;99495.56;4967889;28;19933;-90
2023/10/27 12:29:08;;;;;;;;;;;;;;;18.21;nan;99504.34;4969940;28;19934;-90
2023/10/27 12:31:37;;;;;;;;;;;;;;;18.21;nan;99498.13;4972915;28;19956;-90
2023/10/27 12:34:04;;;;;;;;;;;;;;;18.18;nan;99499.59;4974916;28;20469;-90
2023/10/27 12:36:30;;;;;;;;;;;;;;;18.18;nan;99502.28;4970646;28;20370;-92
2023/10/27 12:39:03;;;;;;;;;;;;;;;18.20;nan;99497.34;4970936;28;19952;-89
2023/10/27 12:41:33;;;;;;;;;;;;;;;18.20;nan;99497.34;4973536;28;19973;-90
2023/10/27 12:44:00;;;;;;;;;;;;;;;18.20;nan;99491.91;4975755;28;19953;-90
2023/10/27 12:46:27;;;;;;;;;;;;;;;18.17;nan;99492.56;4968344;28;19926;-90
2023/10/27 12:48:56;;;;;;;;;;;;;;;18.15;nan;99500.25;4964651;28;19973;-88
2023/10/27 12:51:24;;;;;;;;;;;;;;;18.15;nan;99499.44;4964308;28;19922;-90
2023/10/27 12:53:52;;;;;;;;;;;;;;;18.16;nan;99495.63;4967845;28;19929;-91
2023/10/27 12:56:18;;;;;;;;;;;;;;;18.14;nan;99497.88;4972493;28;20064;-90
2023/10/27 12:58:49;;;;;;;;;;;;;;;18.10;nan;99500.41;4966583;28;19926;-91
2023/10/27 13:01:19;;;;;;;;;;;;;;;18.08;nan;99489.91;4967101;28;19921;-90
2023/10/27 13:03:49;;;;;;;;;;;;;;;18.07;nan;99501.88;4966839;28;20497;-90
2023/10/27 13:06:38;;;;;;;;;;;;;;;18.05;nan;99495.19;4969030;28;19955;-90
2023/10/27 13:09:05;;;;;;;;;;;;;;;18.05;nan;99484.34;4972115;28;19984;-90
2023/10/27 13:11:31;;;;;;;;;;;;;;;18.05;nan;99482.44;4971787;28;20044;-91
2023/10/27 13:13:58;;;;;;;;;;;;;;;18.06;nan;99480.50;4968694;28;19925;-90
2023/10/27 13:16:25;;;;;;;;;;;;;;;18.05;nan;99471.59;4967736;28;20378;-88
2023/10/27 13:18:55;;;;;;;;;;;;;;;18.05;nan;99473.50;4972155;28;20141;-90
2023/10/27 13:21:20;;;;;;;;;;;;;;;18.05;nan;99473.50;4972413;28;19956;-90